Henlow, United Kingdom
Current Conditions -  °F | °C
As of 8:50 AM on Sunday 23 Nov 2014 (Local Time) from EGGW Reporting Station
Light Rain Light Rain  
Wind Chill: 41°   Ceiling: 3300
Heat Index: 46°   Visibility: 4mi
Dew Point: 46°   Wind: 12mph
Humidity: 100%   Direction: 330°NNW
Pressure: 30"   Gusts: NA
Location:  52.03°N, 0.29°W
Report Text: EGGW 230850Z 33010KT 280V360 7000 -RA SCT003 SCT006 OVC033 08/08 Q1016
Loading
Personal Weather Stations






























Interactive Weather Map New forecast layout! Learn more

10-Day Weather Forecast

Advertisements
Track Severe Weather on mobile